createdAt,value
2016-07-09T14:43:33.938Z,2797
2016-07-09T14:46:49.062Z,2106
2016-07-09T14:49:52.834Z,1815
2016-07-09T14:53:07.566Z,2574
2016-07-09T14:56:21.997Z,2044
2016-07-09T14:59:42.379Z,1608
2016-07-09T15:02:45.541Z,2078
2016-07-09T15:05:59.345Z,2020
2016-07-09T15:09:13.546Z,2279
2016-07-09T15:12:27.211Z,2716
2016-07-09T15:15:46.487Z,1468
2016-07-09T15:18:49.745Z,2562
2016-07-09T15:22:03.377Z,1963
2016-07-09T15:25:16.860Z,2425
2016-07-09T15:28:31.476Z,2327
2016-07-09T15:31:46.064Z,1786
2016-07-09T15:35:00.667Z,1087
2016-07-09T15:38:15.124Z,1740
2016-07-09T15:41:26.786Z,1914
2016-07-09T15:44:47.244Z,1788
2016-07-09T15:47:51.116Z,1646
2016-07-09T15:51:05.380Z,1813
2016-07-09T15:54:19.686Z,1861
2016-07-09T15:57:40.330Z,1680
2016-07-09T16:00:43.964Z,1476
2016-07-09T16:03:58.330Z,1841
2016-07-09T16:07:12.340Z,1705
2016-07-09T16:10:26.836Z,1047
2016-07-09T16:13:47.189Z,845
2016-07-09T16:16:50.726Z,1090
2016-07-09T16:20:04.775Z,1318
2016-07-09T16:23:18.922Z,1392
2016-07-09T16:26:33.396Z,1326
2016-07-09T16:29:47.618Z,933
2016-07-09T16:33:01.761Z,1084
2016-07-09T16:36:13.839Z,1006
2016-07-09T16:39:28.164Z,694
2016-07-09T16:42:48.425Z,685
2016-07-09T16:45:51.750Z,964
2016-07-09T16:49:06.017Z,900
2016-07-09T16:52:19.980Z,1238
2016-07-09T16:55:32.737Z,1094
2016-07-09T16:58:46.814Z,1019
2016-07-09T17:02:00.543Z,1132
2016-07-09T17:05:14.844Z,1309
2016-07-09T17:08:28.870Z,1377
2016-07-09T17:11:48.336Z,1196
2016-07-09T17:14:51.964Z,948
2016-07-09T17:18:04.915Z,819
2016-07-09T17:21:15.121Z,889
2016-07-09T17:24:28.470Z,901
2016-07-09T17:27:48.414Z,884
2016-07-09T17:30:51.103Z,1009
2016-07-09T17:34:04.568Z,923
2016-07-09T17:37:18.165Z,862
2016-07-09T17:40:32.052Z,747
2016-07-09T17:43:45.221Z,716
2016-07-09T17:46:58.105Z,751
2016-07-09T17:50:12.087Z,665
2016-07-09T17:53:25.752Z,630
2016-07-09T17:56:45.226Z,673
2016-07-09T17:59:47.848Z,678
2016-07-09T18:03:02.281Z,629
2016-07-09T18:06:16.351Z,566
2016-07-09T18:09:30.856Z,530
2016-07-09T18:12:45.001Z,509
2016-07-09T18:15:59.131Z,517
2016-07-09T18:19:13.620Z,487
2016-07-09T18:22:27.874Z,501
2016-07-09T18:25:47.958Z,449
2016-07-09T18:28:50.997Z,378
2016-07-09T18:32:04.937Z,335
2016-07-09T18:35:18.869Z,322
2016-07-09T18:38:33.302Z,310
2016-07-09T18:41:47.065Z,291
2016-07-09T18:45:01.831Z,262
2016-07-09T18:48:16.566Z,231
2016-07-09T18:51:30.946Z,198
2016-07-09T18:54:45.790Z,170
2016-07-09T18:58:00.374Z,149
2016-07-09T19:01:15.106Z,131
2016-07-09T19:04:29.380Z,114
2016-07-09T19:07:44.006Z,95
2016-07-09T19:10:58.719Z,80
2016-07-09T19:14:13.492Z,68
2016-07-09T19:17:28.212Z,58
2016-07-09T19:20:48.864Z,49
2016-07-09T19:23:52.759Z,40
2016-07-09T19:27:07.470Z,30
2016-07-09T19:30:22.243Z,23
2016-07-09T19:33:42.586Z,17
2016-07-09T19:36:46.567Z,12
2016-07-09T19:40:01.140Z,8
2016-07-09T19:43:15.668Z,5
2016-07-09T19:46:30.313Z,4
2016-07-09T19:49:44.941Z,3
2016-07-09T19:52:59.490Z,2
2016-07-09T19:56:14.030Z,2
2016-07-09T19:59:28.628Z,1
2016-07-09T20:02:49.292Z,1
2016-07-09T20:05:53.271Z,1
2016-07-09T20:09:07.753Z,0
2016-07-09T20:12:22.147Z,0
2016-07-09T20:15:40.862Z,0
2016-07-09T20:18:44.806Z,0
2016-07-09T20:21:59.421Z,0
2016-07-09T20:25:14.035Z,0
2016-07-09T20:28:26.971Z,0
2016-07-09T20:31:47.625Z,0
2016-07-09T20:34:51.587Z,0
2016-07-09T20:38:06.137Z,0
2016-07-09T20:41:20.795Z,0
2016-07-09T20:44:33.226Z,0
2016-07-09T20:47:47.505Z,0
2016-07-09T20:51:02.064Z,0
2016-07-09T20:54:16.470Z,0
2016-07-09T20:57:31.429Z,0
2016-07-09T21:00:44.235Z,0
2016-07-09T21:03:58.964Z,0
2016-07-09T21:07:13.570Z,0
2016-07-09T21:10:28.101Z,0
2016-07-09T21:13:48.653Z,0
2016-07-09T21:16:52.436Z,0
2016-07-09T21:20:06.954Z,0
2016-07-09T21:23:21.667Z,0
2016-07-09T21:26:42.203Z,0
2016-07-09T21:29:45.976Z,0
2016-07-09T21:33:00.430Z,0
2016-07-09T21:36:14.915Z,0
2016-07-09T21:39:28.183Z,0
2016-07-09T21:42:48.654Z,0
2016-07-09T21:45:52.169Z,0
2016-07-09T21:49:06.559Z,0
2016-07-09T21:52:21.015Z,0
2016-07-09T21:55:41.485Z,0
2016-07-09T21:58:45.080Z,0
2016-07-09T22:01:59.568Z,0
2016-07-09T22:05:14.000Z,0
2016-07-09T22:08:28.311Z,0
2016-07-09T22:11:48.177Z,0
2016-07-09T22:14:51.966Z,0
2016-07-09T22:18:06.435Z,0
2016-07-09T22:21:20.907Z,0
2016-07-09T22:24:41.400Z,0
2016-07-09T22:27:45.045Z,0
2016-07-09T22:30:59.550Z,0
2016-07-09T22:34:13.738Z,0
2016-07-09T22:37:28.235Z,0
2016-07-09T22:40:48.643Z,0
2016-07-09T22:43:52.265Z,0
2016-07-09T22:47:06.793Z,0
2016-07-09T22:50:20.984Z,0
2016-07-09T22:53:41.290Z,0
2016-07-09T22:56:44.904Z,0
2016-07-09T22:59:59.401Z,0
2016-07-09T23:03:13.805Z,0
2016-07-09T23:06:28.153Z,0
2016-07-09T23:09:48.623Z,0
2016-07-09T23:12:52.240Z,0
2016-07-09T23:16:06.632Z,0
2016-07-09T23:19:20.959Z,0
2016-07-09T23:22:41.481Z,0
2016-07-09T23:25:45.143Z,0
2016-07-09T23:28:59.276Z,0
2016-07-09T23:32:12.311Z,0
2016-07-09T23:35:26.600Z,0
2016-07-09T23:38:46.896Z,0
2016-07-09T23:41:50.539Z,0
2016-07-09T23:45:04.848Z,0
2016-07-09T23:48:19.296Z,0
2016-07-09T23:51:33.593Z,0
2016-07-09T23:54:47.964Z,0
2016-07-09T23:58:02.001Z,0
